createdAt,value
2022-07-29T00:03:28.175Z,18.00
2022-07-29T00:08:26.398Z,18.00
2022-07-29T00:13:31.800Z,18.00
2022-07-29T00:18:32.518Z,18.00
2022-07-29T00:23:32.665Z,18.00
2022-07-29T00:28:34.712Z,18.00
2022-07-29T00:33:34.429Z,18.00
2022-07-29T00:38:32.658Z,18.00
2022-07-29T00:43:30.924Z,17.90
2022-07-29T00:48:29.190Z,17.80
2022-07-29T00:53:29.572Z,17.80
2022-07-29T00:58:29.244Z,17.80
2022-07-29T01:03:27.612Z,17.70
2022-07-29T01:08:26.057Z,17.70
2022-07-29T01:13:25.937Z,17.60
2022-07-29T01:18:34.168Z,17.60
2022-07-29T01:23:50.104Z,17.60
2022-07-29T01:29:00.782Z,17.50
2022-07-29T01:34:10.863Z,17.50
2022-07-29T01:39:13.284Z,17.40
2022-07-29T01:44:19.122Z,17.40
2022-07-29T01:49:22.312Z,17.30
2022-07-29T01:54:25.031Z,17.30
2022-07-29T01:59:26.876Z,17.30
2022-07-29T02:04:29.181Z,17.20
2022-07-29T02:09:28.932Z,17.10
2022-07-29T02:14:31.254Z,17.10
2022-07-29T02:19:31.628Z,17.20
2022-07-29T02:24:32.020Z,17.20
2022-07-29T02:29:33.315Z,17.20
2022-07-29T02:34:32.297Z,17.20
2022-07-29T02:39:31.493Z,17.20
2022-07-29T02:44:34.538Z,17.20
2022-07-29T02:49:38.643Z,17.20
2022-07-29T02:54:41.595Z,17.10
2022-07-29T02:59:44.321Z,17.10
2022-07-29T03:04:45.391Z,17.10
2022-07-29T03:09:44.836Z,17.10
2022-07-29T03:14:45.626Z,17.10
2022-07-29T03:19:44.449Z,17.10
2022-07-29T03:24:42.781Z,17.20
2022-07-29T03:29:40.995Z,17.20
2022-07-29T03:34:49.125Z,17.20
2022-07-29T03:39:49.414Z,17.20
2022-07-29T03:44:50.961Z,17.20
2022-07-29T03:49:52.481Z,17.30
2022-07-29T03:54:50.996Z,17.20
2022-07-29T03:59:49.934Z,17.20
2022-07-29T04:04:48.208Z,17.10
2022-07-29T04:09:47.759Z,17.20
2022-07-29T04:14:46.006Z,17.10
2022-07-29T04:19:44.221Z,17.00
2022-07-29T04:24:44.498Z,17.00
2022-07-29T04:29:56.999Z,17.00
2022-07-29T04:34:55.949Z,17.00
2022-07-29T04:39:54.134Z,17.10
2022-07-29T04:44:53.687Z,17.20
2022-07-29T04:49:51.942Z,17.20
2022-07-29T04:54:50.456Z,17.30
2022-07-29T04:59:48.941Z,17.30
2022-07-29T05:04:48.478Z,17.30
2022-07-29T05:09:46.683Z,17.30
2022-07-29T05:14:44.942Z,17.30
2022-07-29T05:19:43.213Z,17.40
2022-07-29T05:24:42.882Z,17.40
2022-07-29T05:29:44.588Z,17.50
2022-07-29T05:34:51.252Z,17.50
2022-07-29T05:39:56.783Z,17.50
2022-07-29T05:44:55.733Z,17.70
2022-07-29T05:49:54.027Z,17.80
2022-07-29T05:54:53.585Z,17.80
2022-07-29T05:59:52.832Z,17.90
2022-07-29T06:04:51.376Z,17.90
2022-07-29T06:09:49.668Z,18.00
2022-07-29T06:14:53.938Z,18.10
2022-07-29T06:19:52.906Z,18.20
2022-07-29T06:24:51.206Z,18.30
2022-07-29T06:29:50.939Z,18.40
2022-07-29T06:34:49.268Z,18.50
2022-07-29T06:39:47.466Z,18.60
2022-07-29T06:44:45.691Z,18.70
2022-07-29T06:49:45.233Z,18.90
2022-07-29T06:54:48.925Z,19.00
2022-07-29T06:59:47.146Z,19.10
2022-07-29T07:04:46.752Z,19.30
2022-07-29T07:09:47.519Z,19.50
2022-07-29T07:14:45.701Z,19.50
2022-07-29T07:19:43.853Z,19.60
2022-07-29T07:24:43.435Z,19.80
2022-07-29T07:29:44.433Z,20.00
2022-07-29T07:34:42.709Z,20.00
2022-07-29T07:39:41.006Z,20.20
2022-07-29T07:45:03.753Z,20.40
2022-07-29T07:49:59.091Z,20.60
2022-07-29T07:54:57.352Z,20.80
2022-07-29T07:59:56.991Z,21.10
2022-07-29T08:04:56.022Z,21.40
2022-07-29T08:09:54.333Z,21.60
2022-07-29T08:14:52.521Z,21.90
2022-07-29T08:19:52.171Z,22.10
2022-07-29T08:24:55.716Z,22.40
2022-07-29T08:29:54.011Z,22.60
2022-07-29T08:34:53.708Z,22.70
2022-07-29T08:39:51.989Z,23.00
2022-07-29T08:44:51.581Z,23.30
2022-07-29T08:49:49.820Z,23.60
2022-07-29T08:54:50.615Z,23.90
2022-07-29T08:59:51.943Z,24.30
2022-07-29T09:04:52.022Z,24.70
2022-07-29T09:09:51.756Z,25.20
2022-07-29T09:14:49.970Z,25.30
2022-07-29T09:19:48.231Z,25.60
2022-07-29T09:24:48.316Z,26.10
2022-07-29T09:29:47.934Z,26.40
2022-07-29T09:34:46.240Z,26.60
2022-07-29T09:39:46.693Z,26.90
2022-07-29T09:44:49.532Z,27.20
2022-07-29T09:49:56.149Z,27.40
2022-07-29T09:54:55.011Z,27.60
2022-07-29T10:00:00.748Z,27.90
2022-07-29T10:04:59.443Z,27.90
2022-07-29T10:09:59.582Z,28.20
2022-07-29T10:14:59.294Z,28.30
2022-07-29T10:19:58.487Z,28.60
2022-07-29T10:24:57.243Z,28.90
2022-07-29T10:29:56.103Z,28.90
2022-07-29T10:35:30.054Z,29.00
2022-07-29T10:40:57.283Z,29.20
2022-07-29T10:45:59.284Z,29.20
2022-07-29T10:51:01.201Z,29.30
2022-07-29T10:55:59.421Z,29.40
2022-07-29T11:00:58.106Z,29.50
2022-07-29T11:05:59.500Z,29.60
2022-07-29T11:11:44.102Z,29.60
2022-07-29T11:17:07.197Z,29.70
2022-07-29T11:22:10.719Z,29.60
2022-07-29T11:27:14.121Z,29.60
2022-07-29T11:32:23.169Z,29.60
2022-07-29T11:37:27.664Z,29.70
2022-07-29T11:42:46.967Z,29.70
2022-07-29T11:47:54.528Z,29.70
2022-07-29T11:52:54.790Z,29.70
2022-07-29T11:58:03.833Z,29.70
2022-07-29T12:03:05.050Z,29.70
2022-07-29T12:08:14.763Z,29.80
2022-07-29T12:13:13.590Z,29.90
2022-07-29T12:18:19.654Z,29.80
2022-07-29T12:23:23.712Z,29.80
2022-07-29T12:28:28.185Z,30.00
2022-07-29T12:33:28.899Z,30.10
2022-07-29T12:38:29.033Z,30.30
2022-07-29T12:43:27.594Z,30.30
2022-07-29T12:48:35.920Z,30.50
2022-07-29T12:53:36.122Z,30.80
2022-07-29T12:58:37.225Z,31.00
2022-07-29T13:03:57.153Z,31.40
2022-07-29T13:09:03.922Z,31.70
2022-07-29T13:14:05.919Z,31.90
2022-07-29T13:19:10.630Z,32.10
2022-07-29T13:24:11.264Z,32.30
2022-07-29T13:29:09.469Z,32.40
2022-07-29T13:34:07.640Z,32.50
2022-07-29T13:39:05.993Z,32.50
2022-07-29T13:44:05.707Z,32.50
2022-07-29T13:49:03.929Z,32.50
2022-07-29T13:54:02.127Z,32.60
2022-07-29T13:59:01.108Z,32.50
2022-07-29T14:04:00.730Z,32.60
2022-07-29T14:08:58.972Z,32.50
2022-07-29T14:13:57.142Z,32.60
2022-07-29T14:18:55.360Z,32.60
2022-07-29T14:23:55.578Z,32.60
2022-07-29T14:28:54.471Z,32.50
2022-07-29T14:33:52.724Z,32.50
2022-07-29T14:38:50.896Z,32.50
2022-07-29T14:43:50.463Z,32.40
2022-07-29T14:48:48.736Z,32.00
2022-07-29T14:53:47.086Z,32.00
2022-07-29T14:58:51.500Z,31.90
2022-07-29T15:03:51.667Z,31.90
2022-07-29T15:08:49.908Z,31.80
2022-07-29T15:13:48.126Z,31.60
2022-07-29T15:18:46.318Z,31.70
2022-07-29T15:23:45.821Z,31.60
2022-07-29T15:28:44.107Z,31.40
2022-07-29T15:33:42.331Z,31.30
2022-07-29T15:38:41.743Z,31.30
2022-07-29T15:43:45.480Z,31.20
2022-07-29T15:48:43.766Z,31.00
2022-07-29T15:53:41.996Z,30.80
2022-07-29T15:58:41.947Z,30.80
2022-07-29T16:03:45.734Z,30.80
2022-07-29T16:08:44.456Z,30.70
2022-07-29T16:13:43.970Z,30.60
2022-07-29T16:18:42.159Z,30.30
2022-07-29T16:23:41.020Z,30.20
2022-07-29T16:28:39.288Z,30.00
2022-07-29T16:33:54.176Z,29.70
2022-07-29T16:38:53.964Z,29.50
2022-07-29T16:43:52.122Z,29.40
2022-07-29T16:48:51.824Z,29.20
2022-07-29T16:53:50.510Z,29.00
2022-07-29T16:58:48.867Z,28.90
2022-07-29T17:04:04.686Z,28.70
2022-07-29T17:09:05.042Z,28.70
2022-07-29T17:14:03.259Z,28.50
2022-07-29T17:19:07.380Z,28.30
2022-07-29T17:24:07.779Z,28.00
2022-07-29T17:29:06.053Z,27.90
2022-07-29T17:34:06.502Z,27.80
2022-07-29T17:39:08.050Z,27.70
2022-07-29T17:44:06.289Z,27.60
2022-07-29T17:49:04.704Z,27.60
2022-07-29T17:54:03.044Z,27.50
2022-07-29T17:59:06.521Z,27.40
2022-07-29T18:04:04.893Z,27.20
2022-07-29T18:09:03.225Z,27.10
2022-07-29T18:14:02.848Z,26.80
2022-07-29T18:19:01.111Z,26.80
2022-07-29T18:24:00.869Z,26.60
2022-07-29T18:28:59.074Z,26.50
2022-07-29T18:34:00.198Z,26.40
2022-07-29T18:38:58.491Z,26.30
2022-07-29T18:43:56.765Z,26.20
2022-07-29T18:48:57.206Z,26.10
2022-07-29T18:53:56.956Z,26.00
2022-07-29T18:58:55.135Z,25.90
2022-07-29T19:03:53.283Z,25.80
2022-07-29T19:08:52.347Z,25.60
2022-07-29T19:13:51.921Z,25.60
2022-07-29T19:18:50.156Z,25.50
2022-07-29T19:24:00.142Z,25.50
2022-07-29T19:29:06.180Z,25.40
2022-07-29T19:34:04.908Z,25.20
2022-07-29T19:39:03.467Z,25.00
2022-07-29T19:44:01.675Z,24.80
2022-07-29T19:49:01.559Z,24.80
2022-07-29T19:54:00.131Z,24.80
2022-07-29T19:58:58.551Z,24.70
2022-07-29T20:03:56.803Z,24.70
2022-07-29T20:08:58.703Z,24.60
2022-07-29T20:13:57.239Z,24.50
2022-07-29T20:18:55.428Z,24.40
2022-07-29T20:23:53.717Z,24.40
2022-07-29T20:28:53.382Z,24.30
2022-07-29T20:33:51.848Z,24.30
2022-07-29T20:38:50.092Z,24.20
2022-07-29T20:43:49.698Z,24.10
2022-07-29T20:48:49.260Z,24.10
2022-07-29T20:53:48.075Z,24.00
2022-07-29T20:58:46.245Z,23.90
2022-07-29T21:03:44.625Z,23.90
2022-07-29T21:08:44.599Z,23.80
2022-07-29T21:13:45.471Z,23.70
2022-07-29T21:18:46.287Z,23.60
2022-07-29T21:23:46.839Z,23.40
2022-07-29T21:28:46.189Z,23.20
2022-07-29T21:33:48.613Z,23.10
2022-07-29T21:38:48.167Z,22.90
2022-07-29T21:43:46.326Z,22.90
2022-07-29T21:48:44.812Z,22.90
2022-07-29T21:53:43.060Z,22.90
2022-07-29T21:58:43.864Z,22.80
2022-07-29T22:03:42.041Z,22.80
2022-07-29T22:08:41.798Z,22.70
2022-07-29T22:13:39.975Z,22.60
2022-07-29T22:18:39.550Z,22.50
2022-07-29T22:23:37.690Z,22.60
2022-07-29T22:28:36.007Z,22.60
2022-07-29T22:33:34.224Z,22.60
2022-07-29T22:38:33.885Z,22.50
2022-07-29T22:43:32.219Z,22.40
2022-07-29T22:48:30.552Z,22.40
2022-07-29T22:53:28.867Z,22.30
2022-07-29T22:58:28.786Z,22.20
2022-07-29T23:03:26.995Z,22.20
2022-07-29T23:08:25.235Z,22.20
2022-07-29T23:13:23.508Z,22.20
2022-07-29T23:18:23.054Z,22.20
2022-07-29T23:23:21.350Z,22.10
2022-07-29T23:28:19.533Z,22.00
2022-07-29T23:33:17.784Z,22.00
2022-07-29T23:38:17.292Z,22.00
2022-07-29T23:43:15.482Z,22.00
2022-07-29T23:48:14.585Z,22.10
2022-07-29T23:53:13.135Z,22.00
2022-07-29T23:58:12.649Z,22.00
